Time;durP1;ratioP1;P1;durP2;ratioP2;P2;SDS_P1;SDS_P2;PMS_P1;PMS_P2;Temp;Humidity;BMP_temperature;BMP_pressure;BME280_temperature;BME280_humidity;BME280_pressure;Samples;Min_cycle;Max_cycle;Signal;HPM_P1;HPM_P2
2022/03/26 00:00:37;;;;;;;14.38;12.07;;;11.30;74.00;;;;;;5980440;24;20212;-76
2022/03/26 00:03:04;;;;;;;13.25;11.95;;;11.30;74.00;;;;;;5982033;24;20212;-76
2022/03/26 00:05:32;;;;;;;15.45;13.25;;;11.30;74.00;;;;;;5979840;24;20275;-76
2022/03/26 00:07:59;;;;;;;13.43;11.48;;;11.20;74.20;;;;;;5980446;24;20215;-76
2022/03/26 00:10:26;;;;;;;13.57;11.85;;;11.30;74.10;;;;;;5980270;24;20597;-76
2022/03/26 00:12:53;;;;;;;13.13;11.75;;;11.20;74.00;;;;;;5979460;24;20183;-76
2022/03/26 00:15:21;;;;;;;12.82;11.52;;;11.20;73.90;;;;;;5981044;24;20204;-75
2022/03/26 00:17:48;;;;;;;14.93;13.32;;;11.20;74.00;;;;;;5982026;24;20176;-78
2022/03/26 00:20:15;;;;;;;13.60;12.20;;;11.20;74.60;;;;;;5980935;24;20216;-76
2022/03/26 00:22:42;;;;;;;14.50;12.70;;;11.20;74.90;;;;;;5981634;24;20274;-76
2022/03/26 00:25:13;;;;;;;15.13;12.88;;;11.20;74.80;;;;;;5980653;24;20208;-76
2022/03/26 00:27:40;;;;;;;13.00;11.60;;;11.20;74.90;;;;;;5981014;24;20232;-77
2022/03/26 00:30:08;;;;;;;14.40;12.15;;;11.20;74.90;;;;;;5978894;24;20208;-73
2022/03/26 00:32:37;;;;;;;14.15;11.80;;;11.10;75.00;;;;;;5955764;24;20193;-77
2022/03/26 00:35:05;;;;;;;12.90;11.50;;;11.10;75.00;;;;;;5978534;24;20692;-75
2022/03/26 00:37:32;;;;;;;14.32;11.70;;;11.10;75.20;;;;;;5979530;24;20665;-79
2022/03/26 00:39:59;;;;;;;13.52;12.07;;;11.10;75.20;;;;;;5978393;24;20207;-76
2022/03/26 00:42:26;;;;;;;15.52;12.57;;;11.00;75.40;;;;;;5978505;24;20176;-76
2022/03/26 00:44:53;;;;;;;14.57;12.57;;;11.00;76.50;;;;;;5977953;24;20214;-79
2022/03/26 00:47:20;;;;;;;15.20;13.43;;;10.90;75.40;;;;;;5979834;24;20538;-79
2022/03/26 00:49:48;;;;;;;14.07;12.10;;;10.90;75.90;;;;;;5978365;24;20268;-75
2022/03/26 00:52:15;;;;;;;13.13;11.73;;;10.90;76.10;;;;;;5980466;24;20685;-76
2022/03/26 00:54:42;;;;;;;16.90;13.43;;;10.90;76.00;;;;;;5979080;24;20245;-76
2022/03/26 00:57:09;;;;;;;14.07;12.60;;;10.80;76.20;;;;;;5977882;24;20232;-76
2022/03/26 00:59:37;;;;;;;13.77;12.15;;;10.80;76.20;;;;;;5979840;24;20231;-76
2022/03/26 01:02:04;;;;;;;13.30;11.88;;;10.80;76.00;;;;;;5978965;24;20176;-76
2022/03/26 01:04:31;;;;;;;14.25;12.75;;;10.80;76.10;;;;;;5977888;24;20241;-75
2022/03/26 01:06:59;;;;;;;13.65;11.68;;;10.70;76.10;;;;;;5979902;24;20224;-76
2022/03/26 01:09:26;;;;;;;12.82;11.52;;;10.70;76.40;;;;;;5979268;24;20204;-75
2022/03/26 01:11:53;;;;;;;13.88;11.90;;;10.70;76.80;;;;;;5977611;24;20228;-76
2022/03/26 01:14:21;;;;;;;13.73;11.35;;;10.60;77.50;;;;;;5979199;24;20179;-76
2022/03/26 01:16:49;;;;;;;14.38;11.80;;;10.60;77.00;;;;;;5977821;24;20239;-76
2022/03/26 01:19:16;;;;;;;12.13;10.82;;;10.60;77.00;;;;;;5978837;24;20594;-77
2022/03/26 01:21:43;;;;;;;13.20;11.57;;;10.60;77.10;;;;;;5979744;24;20208;-74
2022/03/26 01:24:11;;;;;;;12.80;11.30;;;10.50;77.20;;;;;;5979470;24;20180;-77
2022/03/26 01:26:38;;;;;;;15.00;12.77;;;10.50;77.20;;;;;;5978386;24;20208;-77
2022/03/26 01:29:07;;;;;;;14.75;12.48;;;10.40;77.40;;;;;;5980731;24;20868;-75
2022/03/26 01:31:34;;;;;;;13.35;11.85;;;10.40;77.60;;;;;;5979549;24;20204;-76
2022/03/26 01:34:02;;;;;;;14.75;12.85;;;10.30;77.70;;;;;;5980370;24;20180;-76
2022/03/26 01:36:29;;;;;;;13.85;12.40;;;10.30;77.90;;;;;;5980785;24;20205;-78
2022/03/26 01:38:56;;;;;;;13.13;11.80;;;10.30;78.00;;;;;;5981429;24;20223;-76
2022/03/26 01:41:24;;;;;;;13.40;12.00;;;10.20;78.20;;;;;;5979369;24;20223;-77
2022/03/26 01:43:52;;;;;;;13.68;12.27;;;10.20;78.20;;;;;;5981791;24;20488;-77
2022/03/26 01:46:20;;;;;;;14.18;12.57;;;10.20;78.40;;;;;;5982608;24;20220;-76
2022/03/26 01:48:48;;;;;;;13.32;11.52;;;10.10;78.30;;;;;;5986464;23;20330;-77
2022/03/26 01:51:15;;;;;;;13.30;11.35;;;10.10;78.50;;;;;;6041727;23;20206;-76
2022/03/26 01:53:45;;;;;;;14.00;11.57;;;10.10;78.60;;;;;;6061722;23;20178;-77
2022/03/26 01:56:13;;;;;;;14.75;12.10;;;10.10;78.80;;;;;;6062045;23;20206;-77
2022/03/26 01:58:42;;;;;;;15.40;12.25;;;10.10;79.00;;;;;;6069564;23;20198;-77
2022/03/26 02:01:09;;;;;;;14.32;12.38;;;10.00;79.20;;;;;;6090221;23;20205;-76
2022/03/26 02:03:36;;;;;;;13.35;11.95;;;10.00;79.30;;;;;;6092252;23;20174;-77
2022/03/26 02:06:03;;;;;;;13.85;12.32;;;10.00;79.40;;;;;;6091063;23;20276;-76
2022/03/26 02:08:31;;;;;;;14.63;13.07;;;10.00;79.40;;;;;;6091759;23;20673;-76
2022/03/26 02:10:58;;;;;;;13.32;11.93;;;9.90;79.50;;;;;;6091661;23;20237;-75
2022/03/26 02:13:25;;;;;;;14.55;12.23;;;9.80;80.30;;;;;;6093511;23;20253;-77
2022/03/26 02:15:54;;;;;;;15.38;12.63;;;9.80;79.50;;;;;;6089568;23;20213;-76
2022/03/26 02:18:21;;;;;;;16.27;13.13;;;9.80;79.60;;;;;;6091263;23;20631;-76
2022/03/26 02:20:49;;;;;;;14.00;11.88;;;9.70;79.80;;;;;;6091595;23;20744;-77
2022/03/26 02:23:16;;;;;;;13.77;11.80;;;9.70;80.00;;;;;;6093895;23;20177;-77
2022/03/26 02:25:45;;;;;;;14.25;12.75;;;9.70;80.00;;;;;;6091189;23;20690;-75
2022/03/26 02:28:12;;;;;;;13.82;12.27;;;9.70;80.50;;;;;;6092895;23;20264;-77
2022/03/26 02:30:39;;;;;;;14.63;12.25;;;9.70;80.30;;;;;;6091978;23;20213;-76
2022/03/26 02:33:06;;;;;;;13.85;12.32;;;9.60;80.20;;;;;;6093624;23;20177;-76
2022/03/26 02:35:33;;;;;;;17.65;14.00;;;9.60;80.30;;;;;;6092132;23;20261;-77
2022/03/26 02:38:01;;;;;;;17.02;13.15;;;9.60;80.40;;;;;;6092482;23;20397;-77
2022/03/26 02:40:28;;;;;;;16.13;12.50;;;9.60;80.50;;;;;;6092045;23;20595;-77
2022/03/26 02:42:55;;;;;;;16.02;12.60;;;9.50;80.80;;;;;;6092813;23;20173;-77
2022/03/26 02:45:23;;;;;;;17.13;12.45;;;9.50;80.90;;;;;;6092708;23;20269;-76
2022/03/26 02:47:51;;;;;;;14.77;11.68;;;9.50;81.10;;;;;;6092858;23;20178;-76
2022/03/26 02:50:19;;;;;;;15.10;12.25;;;9.50;81.20;;;;;;6091133;23;20216;-76
2022/03/26 02:52:48;;;;;;;15.50;12.23;;;9.50;81.10;;;;;;6093512;23;20178;-77
2022/03/26 02:55:16;;;;;;;14.90;12.07;;;9.50;81.30;;;;;;6092746;23;20208;-78
2022/03/26 02:57:46;;;;;;;15.80;13.23;;;9.40;81.50;;;;;;6092651;23;20667;-78
2022/03/26 03:00:14;;;;;;;14.65;12.52;;;9.40;81.60;;;;;;6091623;23;20296;-76
2022/03/26 03:02:42;;;;;;;15.15;12.48;;;9.40;82.90;;;;;;6093579;23;20205;-76
2022/03/26 03:05:10;;;;;;;13.70;11.77;;;9.30;82.10;;;;;;6091871;23;20261;-77
2022/03/26 03:07:39;;;;;;;13.85;11.60;;;9.20;81.90;;;;;;6093780;23;20240;-77
2022/03/26 03:10:06;;;;;;;13.77;11.95;;;9.30;82.20;;;;;;6092027;23;20202;-76
2022/03/26 03:12:34;;;;;;;14.40;11.70;;;9.30;82.50;;;;;;6092802;23;20182;-77
2022/03/26 03:15:02;;;;;;;14.27;12.27;;;9.30;83.20;;;;;;6091016;23;20189;-77
2022/03/26 03:17:29;;;;;;;14.35;12.35;;;9.30;82.30;;;;;;6093988;23;20229;-77
2022/03/26 03:19:56;;;;;;;14.48;12.02;;;9.20;82.20;;;;;;6092046;23;20261;-77
2022/03/26 03:22:23;;;;;;;14.43;11.88;;;9.20;82.30;;;;;;6093461;23;20193;-76
2022/03/26 03:24:50;;;;;;;14.88;12.75;;;9.10;83.10;;;;;;6091787;23;20181;-77
2022/03/26 03:27:17;;;;;;;14.65;12.52;;;9.20;82.30;;;;;;6091359;23;20209;-76
2022/03/26 03:29:45;;;;;;;14.30;12.40;;;9.20;82.20;;;;;;6091740;23;20244;-77
2022/03/26 03:32:12;;;;;;;15.65;12.98;;;9.10;82.60;;;;;;6088039;23;20210;-77
2022/03/26 03:34:39;;;;;;;14.32;12.68;;;9.10;82.70;;;;;;6092204;23;20571;-76
2022/03/26 03:37:06;;;;;;;15.65;13.07;;;9.10;82.90;;;;;;6090980;23;20205;-76
2022/03/26 03:39:34;;;;;;;15.90;12.73;;;9.10;83.10;;;;;;6092680;23;20273;-76
2022/03/26 03:42:01;;;;;;;14.73;12.63;;;9.00;83.30;;;;;;6091350;23;20272;-77
2022/03/26 03:44:28;;;;;;;14.80;12.77;;;9.00;83.60;;;;;;6092876;23;20177;-77
2022/03/26 03:46:56;;;;;;;15.30;11.85;;;9.00;83.50;;;;;;6092329;23;20208;-77
2022/03/26 03:49:26;;;;;;;14.45;12.77;;;9.00;83.60;;;;;;6091322;23;20256;-76
2022/03/26 03:51:53;;;;;;;15.30;13.13;;;9.00;83.30;;;;;;6092492;23;20213;-77
2022/03/26 03:54:20;;;;;;;15.23;12.65;;;9.00;83.30;;;;;;6091647;23;20638;-75
2022/03/26 03:56:47;;;;;;;14.75;13.13;;;9.00;83.50;;;;;;6092057;23;20209;-77
2022/03/26 03:59:14;;;;;;;16.35;12.95;;;9.00;83.80;;;;;;6092028;23;20197;-75
2022/03/26 04:01:41;;;;;;;13.68;12.05;;;8.90;83.50;;;;;;6090719;23;20590;-76
2022/03/26 04:04:10;;;;;;;13.35;11.50;;;8.90;83.80;;;;;;6091828;23;20177;-77
2022/03/26 04:06:37;;;;;;;13.45;11.77;;;8.80;84.20;;;;;;6092813;23;20211;-76
2022/03/26 04:09:04;;;;;;;13.63;12.05;;;8.80;84.40;;;;;;6091579;23;20201;-78
2022/03/26 04:11:31;;;;;;;16.45;13.05;;;8.70;84.30;;;;;;6091940;23;20232;-77
2022/03/26 04:13:58;;;;;;;15.40;13.23;;;8.70;84.50;;;;;;6091234;23;20174;-76
2022/03/26 04:16:25;;;;;;;14.15;12.43;;;8.70;84.70;;;;;;6091988;23;20201;-75
2022/03/26 04:18:52;;;;;;;15.73;12.27;;;8.60;84.60;;;;;;6092446;23;20194;-76
2022/03/26 04:21:21;;;;;;;14.35;12.85;;;8.60;85.10;;;;;;6091581;23;20209;-77
2022/03/26 04:23:48;;;;;;;12.80;11.20;;;8.50;85.40;;;;;;6091454;23;20178;-76
2022/03/26 04:26:15;;;;;;;12.90;11.50;;;8.50;85.40;;;;;;6091351;23;20583;-77
2022/03/26 04:28:42;;;;;;;15.30;13.40;;;8.40;85.20;;;;;;6091837;23;20204;-76
2022/03/26 04:31:09;;;;;;;13.57;11.95;;;8.40;85.30;;;;;;6091002;23;20593;-77
2022/03/26 04:33:36;;;;;;;15.45;12.40;;;8.40;85.60;;;;;;6092977;23;20269;-76
2022/03/26 04:36:04;;;;;;;14.25;11.98;;;8.40;85.60;;;;;;6090980;23;20201;-77
2022/03/26 04:38:32;;;;;;;13.27;11.80;;;8.40;85.60;;;;;;6092374;23;20198;-78
2022/03/26 04:40:59;;;;;;;14.65;12.35;;;8.40;85.60;;;;;;6091959;23;20205;-76
2022/03/26 04:43:26;;;;;;;13.60;11.98;;;8.40;85.60;;;;;;6092296;23;20181;-76
2022/03/26 04:45:53;;;;;;;12.43;10.90;;;8.40;85.40;;;;;;6091956;23;20205;-77
2022/03/26 04:48:20;;;;;;;13.18;11.63;;;8.30;85.40;;;;;;6090406;23;20178;-77
2022/03/26 04:50:48;;;;;;;13.00;11.60;;;8.30;85.70;;;;;;6090560;23;20213;-76
2022/03/26 04:53:15;;;;;;;13.65;12.07;;;8.30;85.80;;;;;;6092286;23;20189;-77
2022/03/26 04:55:43;;;;;;;13.88;12.35;;;8.30;86.50;;;;;;6091896;23;20281;-78
2022/03/26 04:58:10;;;;;;;14.75;12.60;;;8.40;85.80;;;;;;6092118;23;20248;-77
2022/03/26 05:00:37;;;;;;;13.05;10.98;;;8.30;85.90;;;;;;6090435;23;20178;-76
2022/03/26 05:03:04;;;;;;;13.38;11.23;;;8.30;86.90;;;;;;6092812;23;20521;-77
2022/03/26 05:05:31;;;;;;;13.10;11.32;;;8.30;86.30;;;;;;6091388;23;20181;-77
2022/03/26 05:07:59;;;;;;;12.23;10.77;;;8.30;86.70;;;;;;6092410;23;20182;-77
2022/03/26 05:10:28;;;;;;;12.50;11.07;;;8.30;86.70;;;;;;6090807;23;20236;-76
2022/03/26 05:12:58;;;;;;;13.38;11.10;;;8.30;86.70;;;;;;6092323;23;20334;-77
2022/03/26 05:15:27;;;;;;;14.45;11.48;;;8.30;87.70;;;;;;6091033;23;20205;-76
2022/03/26 05:17:56;;;;;;;13.55;10.88;;;8.40;87.90;;;;;;6092750;23;20180;-76
2022/03/26 05:20:24;;;;;;;11.75;10.45;;;8.40;87.70;;;;;;6091339;23;20268;-77
2022/03/26 05:22:52;;;;;;;13.40;10.60;;;8.40;87.90;;;;;;6092112;23;20217;-77
2022/03/26 05:25:19;;;;;;;11.90;10.15;;;8.50;87.90;;;;;;6091978;23;20184;-78
2022/03/26 05:27:47;;;;;;;12.23;10.75;;;8.50;88.10;;;;;;6090785;23;20590;-77
2022/03/26 05:30:16;;;;;;;11.18;9.70;;;8.50;88.40;;;;;;6091057;23;20212;-76
2022/03/26 05:32:44;;;;;;;12.63;10.45;;;8.60;88.50;;;;;;6091404;23;20241;-77
2022/03/26 05:35:13;;;;;;;15.27;11.75;;;8.60;88.00;;;;;;6090997;23;20184;-76
2022/03/26 05:37:41;;;;;;;13.48;11.75;;;8.50;88.50;;;;;;6091148;23;20218;-77
2022/03/26 05:40:09;;;;;;;14.20;12.05;;;8.40;88.10;;;;;;6092320;23;20534;-77
2022/03/26 05:42:36;;;;;;;12.98;11.52;;;8.40;88.30;;;;;;6091425;23;20201;-76
2022/03/26 05:45:03;;;;;;;13.52;11.65;;;8.40;88.10;;;;;;6091273;23;20182;-78
2022/03/26 05:47:32;;;;;;;13.70;11.23;;;8.40;87.90;;;;;;6088024;23;20243;-77
2022/03/26 05:49:59;;;;;;;12.77;11.38;;;8.50;87.70;;;;;;6090147;23;20260;-77
2022/03/26 05:52:27;;;;;;;12.10;10.38;;;8.70;87.20;;;;;;6089472;23;20212;-76
2022/03/26 05:54:54;;;;;;;12.20;10.90;;;9.00;87.00;;;;;;6090905;23;20177;-77
2022/03/26 05:57:21;;;;;;;16.67;11.02;;;9.30;86.90;;;;;;6090385;23;20236;-77
2022/03/26 05:59:48;;;;;;;13.05;10.73;;;9.60;86.60;;;;;;6088767;23;20225;-77
2022/03/26 06:02:15;;;;;;;11.88;10.60;;;9.90;85.90;;;;;;6089778;23;20260;-76
2022/03/26 06:04:44;;;;;;;12.60;11.30;;;10.20;85.50;;;;;;6090483;23;20178;-77
2022/03/26 06:07:12;;;;;;;11.73;10.52;;;10.50;85.40;;;;;;6091151;23;20208;-77
2022/03/26 06:09:40;;;;;;;12.55;11.25;;;10.70;84.70;;;;;;6091726;23;20201;-77
2022/03/26 06:12:08;;;;;;;13.48;10.55;;;11.00;83.90;;;;;;6091880;23;20202;-77
2022/03/26 06:14:35;;;;;;;13.88;11.23;;;11.30;83.30;;;;;;6092338;23;20185;-77
2022/03/26 06:17:02;;;;;;;14.10;11.77;;;11.50;83.20;;;;;;6090919;23;20219;-77
2022/03/26 06:19:29;;;;;;;12.73;11.23;;;11.70;83.00;;;;;;6092066;23;20190;-77
2022/03/26 06:21:57;;;;;;;13.32;11.23;;;11.80;82.70;;;;;;6090031;23;20211;-77
2022/03/26 06:24:25;;;;;;;13.25;11.77;;;12.00;82.30;;;;;;6089530;23;20177;-77
2022/03/26 06:26:52;;;;;;;16.08;13.02;;;12.20;81.90;;;;;;6089791;23;20237;-78
2022/03/26 06:29:19;;;;;;;15.52;12.85;;;12.30;81.90;;;;;;6091288;23;20197;-77
2022/03/26 06:31:46;;;;;;;14.18;12.68;;;12.50;81.80;;;;;;6091330;23;20681;-76
2022/03/26 06:34:13;;;;;;;14.07;11.65;;;12.70;81.00;;;;;;6089638;23;20566;-77
2022/03/26 06:36:40;;;;;;;14.25;12.57;;;12.90;81.10;;;;;;6091639;23;20580;-77
2022/03/26 06:39:09;;;;;;;14.82;12.25;;;13.20;81.00;;;;;;6092355;23;20204;-77
2022/03/26 06:41:39;;;;;;;15.50;13.05;;;13.30;80.70;;;;;;6091394;23;20210;-76
2022/03/26 06:44:07;;;;;;;16.83;14.00;;;13.50;81.30;;;;;;6091558;23;20178;-77
2022/03/26 06:46:35;;;;;;;15.90;13.95;;;13.40;79.80;;;;;;6090678;23;20695;-76
2022/03/26 06:49:02;;;;;;;15.30;13.35;;;13.50;80.00;;;;;;6092362;23;20237;-77
2022/03/26 06:51:30;;;;;;;15.90;13.02;;;13.70;79.40;;;;;;6091422;23;20206;-77
2022/03/26 06:53:58;;;;;;;19.02;13.68;;;13.70;79.30;;;;;;6092974;23;20180;-77
2022/03/26 06:56:26;;;;;;;17.45;14.38;;;13.90;80.30;;;;;;6093587;23;20288;-77
2022/03/26 06:58:54;;;;;;;16.52;13.63;;;14.10;80.20;;;;;;6093649;23;20678;-78
2022/03/26 07:01:21;;;;;;;15.23;13.55;;;14.20;79.50;;;;;;6093917;23;20201;-78
2022/03/26 07:03:49;;;;;;;17.17;14.27;;;14.20;79.60;;;;;;6093830;23;20173;-77
2022/03/26 07:06:18;;;;;;;17.50;14.77;;;14.20;79.50;;;;;;6093080;23;20694;-77
2022/03/26 07:08:46;;;;;;;16.38;14.35;;;14.20;78.90;;;;;;6093499;23;20510;-77
2022/03/26 07:11:13;;;;;;;15.15;13.65;;;14.30;79.50;;;;;;6091561;23;20206;-76
2022/03/26 07:13:41;;;;;;;17.95;14.38;;;14.50;78.90;;;;;;6092281;23;20526;-77
2022/03/26 07:16:08;;;;;;;20.02;14.38;;;14.50;79.60;;;;;;6093078;23;20180;-78
2022/03/26 07:18:36;;;;;;;19.55;14.45;;;14.70;79.10;;;;;;6092402;23;20197;-77
2022/03/26 07:21:03;;;;;;;16.15;13.82;;;14.90;78.60;;;;;;6092630;23;20485;-77
2022/03/26 07:23:30;;;;;;;17.42;14.23;;;15.00;78.10;;;;;;6092984;23;20178;-78
2022/03/26 07:25:57;;;;;;;17.00;14.23;;;14.90;78.00;;;;;;6091718;23;20238;-77
2022/03/26 07:28:24;;;;;;;15.75;14.07;;;14.80;77.50;;;;;;6092583;23;20650;-77
2022/03/26 07:30:53;;;;;;;14.57;13.00;;;14.90;77.60;;;;;;6091828;23;20221;-78
2022/03/26 07:33:20;;;;;;;19.15;14.20;;;15.30;77.50;;;;;;6091744;23;20524;-77
2022/03/26 07:35:47;;;;;;;17.58;14.10;;;15.50;77.10;;;;;;6092542;23;20181;-77
2022/03/26 07:38:14;;;;;;;16.50;13.93;;;15.80;76.90;;;;;;6094300;23;20210;-77
2022/03/26 07:40:41;;;;;;;17.48;14.82;;;15.90;77.80;;;;;;6093139;23;20174;-77
2022/03/26 07:43:08;;;;;;;17.10;14.40;;;15.90;76.50;;;;;;6093435;23;20726;-77
2022/03/26 07:45:36;;;;;;;17.05;15.02;;;16.00;75.80;;;;;;6093083;23;20248;-77
2022/03/26 07:48:05;;;;;;;19.08;15.13;;;16.00;76.90;;;;;;6093308;23;20205;-78
2022/03/26 07:50:33;;;;;;;16.90;14.18;;;15.90;77.10;;;;;;6071666;23;20213;-76
2022/03/26 07:53:00;;;;;;;16.92;14.20;;;15.90;76.80;;;;;;6039317;23;20211;-78
2022/03/26 07:55:27;;;;;;;17.35;14.98;;;16.00;76.60;;;;;;6039692;23;20187;-75
2022/03/26 07:57:54;;;;;;;18.80;15.18;;;16.20;76.40;;;;;;6060294;23;20257;-76
2022/03/26 08:00:21;;;;;;;18.50;14.95;;;16.30;76.10;;;;;;6087786;23;20591;-81
2022/03/26 08:02:48;;;;;;;17.98;14.68;;;16.20;75.50;;;;;;6073714;23;20221;-77
2022/03/26 08:05:17;;;;;;;17.98;15.13;;;16.30;75.20;;;;;;6068713;23;20178;-76
2022/03/26 08:07:44;;;;;;;18.55;15.98;;;16.50;74.70;;;;;;6065362;23;20434;-80
2022/03/26 08:10:11;;;;;;;19.95;15.65;;;16.40;74.30;;;;;;6067145;23;20213;-77
2022/03/26 08:12:39;;;;;;;16.67;14.75;;;16.50;74.70;;;;;;6067763;23;20261;-78
2022/03/26 08:15:07;;;;;;;18.35;15.45;;;16.50;74.70;;;;;;6068256;23;20179;-78
2022/03/26 08:17:35;;;;;;;17.77;15.20;;;16.80;74.30;;;;;;6068802;23;20209;-79
2022/03/26 08:20:02;;;;;;;17.00;15.02;;;17.10;74.70;;;;;;6067784;23;20250;-77
2022/03/26 08:22:31;;;;;;;19.08;15.60;;;17.10;74.20;;;;;;6064740;23;20326;-78
2022/03/26 08:24:58;;;;;;;18.45;15.45;;;17.00;74.40;;;;;;6067500;23;20181;-76
2022/03/26 08:27:25;;;;;;;18.92;15.43;;;16.80;74.70;;;;;;6065949;23;20202;-76
2022/03/26 08:29:52;;;;;;;20.38;16.42;;;16.60;74.70;;;;;;6064854;23;20201;-77
2022/03/26 08:32:19;;;;;;;21.58;16.17;;;16.40;74.70;;;;;;6066497;23;20198;-77
2022/03/26 08:34:46;;;;;;;18.17;15.55;;;16.40;75.60;;;;;;6074024;23;20192;-77
2022/03/26 08:37:14;;;;;;;18.05;15.00;;;16.60;76.00;;;;;;6067918;23;20261;-76
2022/03/26 08:39:43;;;;;;;19.80;15.20;;;16.60;75.80;;;;;;6069307;23;20194;-76
2022/03/26 08:42:10;;;;;;;17.17;15.35;;;16.80;75.60;;;;;;6065056;23;20516;-76
2022/03/26 08:44:37;;;;;;;20.10;16.50;;;17.10;75.30;;;;;;6064826;23;20698;-77
2022/03/26 08:47:06;;;;;;;17.65;15.48;;;17.40;74.60;;;;;;6063164;23;20686;-76
2022/03/26 08:49:33;;;;;;;16.63;14.80;;;17.50;74.00;;;;;;6060574;23;20206;-76
2022/03/26 08:52:01;;;;;;;17.42;15.52;;;17.60;73.60;;;;;;6062630;23;20213;-80
2022/03/26 08:54:28;;;;;;;18.35;15.57;;;17.80;73.30;;;;;;6061428;23;20187;-77
2022/03/26 08:56:56;;;;;;;18.98;15.98;;;18.00;75.00;;;;;;6059397;23;20301;-76
2022/03/26 08:59:23;;;;;;;19.90;16.25;;;18.30;72.50;;;;;;6059559;23;20930;-76
2022/03/26 09:01:51;;;;;;;17.65;15.02;;;18.20;71.60;;;;;;6058815;23;20202;-75
2022/03/26 09:04:18;;;;;;;20.25;16.35;;;18.20;70.60;;;;;;6059963;23;20190;-77
2022/03/26 09:06:45;;;;;;;20.55;15.07;;;18.40;71.00;;;;;;6061032;23;20210;-76
2022/03/26 09:09:14;;;;;;;18.92;15.48;;;18.50;70.30;;;;;;6061183;23;20651;-79
2022/03/26 09:11:43;;;;;;;17.60;15.57;;;18.30;69.10;;;;;;6061721;23;20253;-78
2022/03/26 09:14:12;;;;;;;19.67;16.20;;;18.20;69.60;;;;;;6062131;23;20182;-78
2022/03/26 09:16:39;;;;;;;18.98;15.82;;;18.10;68.80;;;;;;6061669;23;20273;-77
2022/03/26 09:19:06;;;;;;;22.52;17.25;;;17.90;69.00;;;;;;6061732;23;20240;-77
2022/03/26 09:21:34;;;;;;;21.08;16.50;;;17.70;68.00;;;;;;6062264;23;20655;-79
2022/03/26 09:24:01;;;;;;;19.58;14.77;;;17.50;68.30;;;;;;6062212;23;20178;-79
2022/03/26 09:26:28;;;;;;;19.48;15.13;;;17.50;68.00;;;;;;6062404;23;20189;-83
2022/03/26 09:28:55;;;;;;;17.45;14.48;;;17.60;68.40;;;;;;6064260;23;20186;-79
2022/03/26 09:31:24;;;;;;;16.73;14.70;;;17.70;68.80;;;;;;6062487;23;20228;-78
2022/03/26 09:33:51;;;;;;;18.35;15.25;;;17.80;68.60;;;;;;6061924;23;20213;-77
2022/03/26 09:36:18;;;;;;;18.60;15.63;;;18.00;68.60;;;;;;6062796;23;20175;-76
2022/03/26 09:38:45;;;;;;;19.35;16.23;;;18.10;68.90;;;;;;6060779;23;20270;-77
2022/03/26 09:41:13;;;;;;;20.08;16.48;;;18.20;69.10;;;;;;6061626;23;20194;-76
2022/03/26 09:43:41;;;;;;;18.50;15.80;;;18.40;68.70;;;;;;6061406;23;20293;-78
2022/03/26 09:46:08;;;;;;;19.13;16.08;;;18.50;68.90;;;;;;6062159;23;20230;-78
2022/03/26 09:48:38;;;;;;;17.23;15.10;;;18.70;69.90;;;;;;6061429;23;20212;-78
2022/03/26 09:51:05;;;;;;;23.52;16.83;;;19.00;69.10;;;;;;6060667;23;20237;-78
2022/03/26 09:53:32;;;;;;;20.95;16.10;;;19.30;68.00;;;;;;6061082;23;20209;-80
2022/03/26 09:56:00;;;;;;;18.58;15.60;;;19.40;67.50;;;;;;6061134;23;20182;-77
2022/03/26 09:58:27;;;;;;;18.35;15.23;;;19.40;67.60;;;;;;6061291;23;20212;-77
2022/03/26 10:00:54;;;;;;;18.92;15.63;;;19.90;67.30;;;;;;6062580;23;20198;-77
2022/03/26 10:03:21;;;;;;;17.52;15.63;;;19.80;66.30;;;;;;6062309;23;20230;-78
2022/03/26 10:06:01;;;;;;;18.83;16.65;;;19.80;66.60;;;;;;6060228;23;20182;-76
2022/03/26 10:08:28;;;;;;;19.50;15.80;;;19.80;67.00;;;;;;6059668;23;20206;-76
2022/03/26 10:10:55;;;;;;;18.92;16.48;;;20.00;67.70;;;;;;6060330;23;20205;-76
2022/03/26 10:13:37;;;;;;;18.73;16.77;;;20.20;66.40;;;;;;6059925;23;20201;-76
2022/03/26 10:16:06;;;;;;;20.65;17.40;;;20.20;67.20;;;;;;6060861;23;20229;-75
2022/03/26 10:18:38;;;;;;;21.88;16.92;;;20.00;65.40;;;;;;6059650;23;20233;-77
2022/03/26 10:21:09;;;;;;;26.55;17.15;;;19.90;66.30;;;;;;6073696;23;20201;-77
2022/03/26 10:23:36;;;;;;;19.75;16.85;;;20.10;67.00;;;;;;6064108;23;20228;-75
2022/03/26 10:26:08;;;;;;;17.85;15.70;;;20.20;66.00;;;;;;6062211;23;20885;-78
2022/03/26 10:28:35;;;;;;;18.58;15.52;;;20.20;66.30;;;;;;6062773;23;20261;-76
2022/03/26 10:34:08;;;;;;;19.30;16.50;;;20.40;65.50;;;;;;6061850;23;20297;-76
2022/03/26 10:36:38;;;;;;;17.83;15.88;;;20.60;65.00;;;;;;6063237;23;20187;-75
2022/03/26 10:39:06;;;;;;;19.92;16.52;;;20.70;64.70;;;;;;6062106;23;20690;-76
2022/03/26 10:41:35;;;;;;;20.63;16.25;;;20.60;64.10;;;;;;6062617;23;20246;-76
2022/03/26 10:44:10;;;;;;;23.42;16.67;;;20.50;64.70;;;;;;6061768;23;20206;-76
2022/03/26 10:46:45;;;;;;;22.40;17.17;;;20.70;65.40;;;;;;6063357;23;20238;-76
2022/03/26 10:49:13;;;;;;;17.83;15.15;;;20.70;63.40;;;;;;6093785;23;20193;-76
2022/03/26 10:51:42;;;;;;;18.25;16.25;;;20.60;64.20;;;;;;6093464;23;20192;-77
2022/03/26 10:54:15;;;;;;;18.13;16.05;;;20.60;63.90;;;;;;6061518;23;20277;-76
2022/03/26 10:56:43;;;;;;;17.48;15.60;;;20.50;63.50;;;;;;6064037;23;20224;-75
2022/03/26 10:59:10;;;;;;;18.17;16.20;;;20.60;62.70;;;;;;6064845;23;20229;-77
2022/03/26 11:01:37;;;;;;;17.73;14.73;;;20.50;62.40;;;;;;6064343;23;20234;-75
2022/03/26 11:04:04;;;;;;;22.25;15.23;;;20.70;62.70;;;;;;6064028;23;20216;-76
2022/03/26 11:06:39;;;;;;;26.30;15.82;;;20.90;61.80;;;;;;6061822;23;20840;-76
2022/03/26 11:09:08;;;;;;;17.25;13.85;;;21.20;61.30;;;;;;6063743;23;20730;-76
2022/03/26 11:11:37;;;;;;;20.40;16.55;;;21.30;61.10;;;;;;6064174;23;20201;-75
2022/03/26 11:14:08;;;;;;;18.88;16.05;;;21.30;60.90;;;;;;6067720;23;20226;-76
2022/03/26 11:16:53;;;;;;;17.58;15.63;;;21.30;61.60;;;;;;6072403;23;20181;-75
2022/03/26 11:19:28;;;;;;;17.95;16.05;;;21.10;61.90;;;;;;6061346;23;20469;-76
2022/03/26 11:22:21;;;;;;;17.38;14.65;;;21.10;63.00;;;;;;6059898;23;20556;-75
2022/03/26 11:25:19;;;;;;;17.80;15.30;;;21.20;63.10;;;;;;6060873;23;20233;-75
2022/03/26 11:28:01;;;;;;;19.75;16.15;;;21.20;62.60;;;;;;6063672;23;20220;-76
2022/03/26 11:30:36;;;;;;;17.73;15.73;;;21.40;63.00;;;;;;6062968;23;20210;-76
2022/03/26 11:33:14;;;;;;;17.85;15.95;;;21.40;62.10;;;;;;6063169;23;20220;-76
2022/03/26 11:35:52;;;;;;;19.95;17.23;;;21.50;62.50;;;;;;6062058;23;20314;-76
2022/03/26 11:38:20;;;;;;;18.02;15.18;;;21.20;61.10;;;;;;6063101;23;20409;-75
2022/03/26 11:40:53;;;;;;;18.48;16.25;;;21.30;63.80;;;;;;6060555;23;20230;-77
2022/03/26 11:43:35;;;;;;;20.13;17.08;;;21.50;62.50;;;;;;6062090;23;20162;-75
2022/03/26 11:51:50;;;;;;;19.30;17.27;;;22.10;61.60;;;;;;6060662;23;20694;-75
2022/03/26 11:54:18;;;;;;;16.90;15.10;;;22.20;62.20;;;;;;6061357;23;20167;-76
2022/03/26 11:56:47;;;;;;;18.17;16.05;;;22.20;62.10;;;;;;6058698;23;20241;-75
2022/03/26 11:59:27;;;;;;;21.40;18.30;;;22.30;61.50;;;;;;6059928;23;20178;-75
2022/03/26 12:01:54;;;;;;;18.50;16.60;;;21.90;60.80;;;;;;6059231;23;20261;-76
2022/03/26 12:04:27;;;;;;;19.70;16.27;;;21.80;61.80;;;;;;6062505;23;20530;-75
2022/03/26 12:06:58;;;;;;;18.40;16.48;;;21.80;62.30;;;;;;6059239;23;20259;-76
2022/03/26 12:09:30;;;;;;;19.58;16.52;;;22.10;62.00;;;;;;6079942;23;20774;-76
2022/03/26 12:12:22;;;;;;;19.77;17.30;;;22.30;61.80;;;;;;6058516;23;20210;-75
2022/03/26 12:15:30;;;;;;;20.08;16.65;;;22.30;59.60;;;;;;6037962;23;20185;-76
2022/03/26 12:18:08;;;;;;;20.38;18.17;;;22.10;60.30;;;;;;6060863;23;20226;-76
2022/03/26 12:20:37;;;;;;;19.00;16.77;;;22.00;59.60;;;;;;6059573;23;20217;-76
2022/03/26 12:23:07;;;;;;;19.63;17.52;;;22.10;59.60;;;;;;6060572;23;20178;-76
2022/03/26 12:25:37;;;;;;;19.73;17.67;;;22.20;58.90;;;;;;6062437;23;20203;-76
2022/03/26 12:28:06;;;;;;;19.90;17.10;;;22.50;58.50;;;;;;6061369;23;20178;-76
2022/03/26 12:30:33;;;;;;;21.75;18.67;;;22.70;58.30;;;;;;6061039;23;20773;-76
2022/03/26 12:33:01;;;;;;;20.38;17.17;;;22.80;57.80;;;;;;6057965;23;20204;-76
2022/03/26 12:35:30;;;;;;;19.27;17.27;;;22.80;57.50;;;;;;6060263;23;20317;-75
2022/03/26 12:37:57;;;;;;;19.15;17.02;;;22.60;57.50;;;;;;6063243;23;20209;-76
2022/03/26 12:40:24;;;;;;;20.30;16.13;;;22.60;57.30;;;;;;6063899;23;20214;-76
2022/03/26 12:42:55;;;;;;;16.95;15.15;;;22.60;57.20;;;;;;6064372;23;20174;-76
2022/03/26 12:45:24;;;;;;;16.02;14.38;;;22.60;56.60;;;;;;6063240;23;20385;-76